sensor_id;sensor_type;location;lat;lon;timestamp;temperature;humidity
67101;DHT22;54019;61.746;16.106;2022-08-01T00:01:38;23.00;44.60
67101;DHT22;54019;61.746;16.106;2022-08-01T00:04:25;23.00;45.20
67101;DHT22;54019;61.746;16.106;2022-08-01T00:07:11;23.00;44.80
67101;DHT22;54019;61.746;16.106;2022-08-01T00:09:57;23.00;44.80
67101;DHT22;54019;61.746;16.106;2022-08-01T00:12:45;23.00;44.60
67101;DHT22;54019;61.746;16.106;2022-08-01T00:15:31;23.00;44.50
67101;DHT22;54019;61.746;16.106;2022-08-01T00:18:17;23.00;44.70
67101;DHT22;54019;61.746;16.106;2022-08-01T00:21:05;23.00;44.60
67101;DHT22;54019;61.746;16.106;2022-08-01T00:23:51;23.00;44.80
67101;DHT22;54019;61.746;16.106;2022-08-01T00:26:37;23.00;44.60
67101;DHT22;54019;61.746;16.106;2022-08-01T00:29:23;23.00;44.80
67101;DHT22;54019;61.746;16.106;2022-08-01T00:32:09;23.00;44.80
67101;DHT22;54019;61.746;16.106;2022-08-01T00:34:55;23.00;44.80
67101;DHT22;54019;61.746;16.106;2022-08-01T00:37:43;23.00;44.80
67101;DHT22;54019;61.746;16.106;2022-08-01T00:40:29;23.00;44.80
67101;DHT22;54019;61.746;16.106;2022-08-01T00:43:15;23.00;44.80
67101;DHT22;54019;61.746;16.106;2022-08-01T00:46:02;23.00;44.80
67101;DHT22;54019;61.746;16.106;2022-08-01T00:48:48;23.00;44.90
67101;DHT22;54019;61.746;16.106;2022-08-01T00:51:35;22.90;45.00
67101;DHT22;54019;61.746;16.106;2022-08-01T00:54:23;22.90;44.90
67101;DHT22;54019;61.746;16.106;2022-08-01T00:57:10;22.90;44.90
67101;DHT22;54019;61.746;16.106;2022-08-01T00:59:56;23.00;45.00
67101;DHT22;54019;61.746;16.106;2022-08-01T01:02:42;22.90;45.00
67101;DHT22;54019;61.746;16.106;2022-08-01T01:05:29;22.90;44.90
67101;DHT22;54019;61.746;16.106;2022-08-01T01:08:22;22.90;44.90
67101;DHT22;54019;61.746;16.106;2022-08-01T01:11:26;22.90;45.10
67101;DHT22;54019;61.746;16.106;2022-08-01T01:14:21;22.90;45.10
67101;DHT22;54019;61.746;16.106;2022-08-01T01:17:09;22.90;45.40
67101;DHT22;54019;61.746;16.106;2022-08-01T01:19:57;22.90;45.40
67101;DHT22;54019;61.746;16.106;2022-08-01T01:22:57;22.90;45.30
67101;DHT22;54019;61.746;16.106;2022-08-01T01:26:01;22.90;45.10
67101;DHT22;54019;61.746;16.106;2022-08-01T01:29:00;22.90;45.10
67101;DHT22;54019;61.746;16.106;2022-08-01T01:31:50;22.90;45.40
67101;DHT22;54019;61.746;16.106;2022-08-01T01:34:38;22.90;45.50
67101;DHT22;54019;61.746;16.106;2022-08-01T01:37:27;22.90;45.50
67101;DHT22;54019;61.746;16.106;2022-08-01T01:40:14;22.90;45.30
67101;DHT22;54019;61.746;16.106;2022-08-01T01:43:01;22.90;45.30
67101;DHT22;54019;61.746;16.106;2022-08-01T01:45:49;22.90;45.30
67101;DHT22;54019;61.746;16.106;2022-08-01T01:48:36;22.90;45.30
67101;DHT22;54019;61.746;16.106;2022-08-01T01:51:24;22.90;45.40
67101;DHT22;54019;61.746;16.106;2022-08-01T01:54:11;22.90;45.60
67101;DHT22;54019;61.746;16.106;2022-08-01T01:56:59;22.90;45.60
67101;DHT22;54019;61.746;16.106;2022-08-01T01:59:46;22.90;45.70
67101;DHT22;54019;61.746;16.106;2022-08-01T02:02:36;22.90;45.50
67101;DHT22;54019;61.746;16.106;2022-08-01T02:05:24;22.80;45.70
67101;DHT22;54019;61.746;16.106;2022-08-01T02:08:11;22.90;45.90
67101;DHT22;54019;61.746;16.106;2022-08-01T02:11:01;22.80;45.80
67101;DHT22;54019;61.746;16.106;2022-08-01T02:13:53;22.80;46.00
67101;DHT22;54019;61.746;16.106;2022-08-01T02:16:41;22.80;46.00
67101;DHT22;54019;61.746;16.106;2022-08-01T02:19:30;22.80;45.60
67101;DHT22;54019;61.746;16.106;2022-08-01T02:22:19;22.80;45.80
67101;DHT22;54019;61.746;16.106;2022-08-01T02:25:11;22.80;45.80
67101;DHT22;54019;61.746;16.106;2022-08-01T02:28:04;22.80;45.90
67101;DHT22;54019;61.746;16.106;2022-08-01T02:30:52;22.80;46.00
67101;DHT22;54019;61.746;16.106;2022-08-01T02:33:41;22.80;45.90
67101;DHT22;54019;61.746;16.106;2022-08-01T02:36:32;22.80;45.70
67101;DHT22;54019;61.746;16.106;2022-08-01T02:39:21;22.80;45.90
67101;DHT22;54019;61.746;16.106;2022-08-01T02:42:09;22.80;45.90
67101;DHT22;54019;61.746;16.106;2022-08-01T02:44:57;22.80;45.80
67101;DHT22;54019;61.746;16.106;2022-08-01T02:47:44;22.80;45.70
67101;DHT22;54019;61.746;16.106;2022-08-01T02:50:32;22.80;45.00
67101;DHT22;54019;61.746;16.106;2022-08-01T02:53:23;22.80;45.30
67101;DHT22;54019;61.746;16.106;2022-08-01T02:56:10;22.80;46.50
67101;DHT22;54019;61.746;16.106;2022-08-01T02:58:57;22.80;46.20
67101;DHT22;54019;61.746;16.106;2022-08-01T03:01:45;22.80;46.20
67101;DHT22;54019;61.746;16.106;2022-08-01T03:04:34;22.80;46.60
67101;DHT22;54019;61.746;16.106;2022-08-01T03:07:21;22.80;46.60
67101;DHT22;54019;61.746;16.106;2022-08-01T03:10:09;22.80;46.80
67101;DHT22;54019;61.746;16.106;2022-08-01T03:12:57;22.80;46.70
67101;DHT22;54019;61.746;16.106;2022-08-01T03:15:45;22.80;46.80
67101;DHT22;54019;61.746;16.106;2022-08-01T03:18:33;22.80;46.80
67101;DHT22;54019;61.746;16.106;2022-08-01T03:21:20;22.90;47.60
67101;DHT22;54019;61.746;16.106;2022-08-01T03:24:08;22.80;46.70
67101;DHT22;54019;61.746;16.106;2022-08-01T03:26:57;22.80;46.70
67101;DHT22;54019;61.746;16.106;2022-08-01T03:29:45;22.80;47.30
67101;DHT22;54019;61.746;16.106;2022-08-01T03:32:32;22.80;46.60
67101;DHT22;54019;61.746;16.106;2022-08-01T03:35:19;22.80;46.70
67101;DHT22;54019;61.746;16.106;2022-08-01T03:38:08;22.80;46.80
67101;DHT22;54019;61.746;16.106;2022-08-01T03:40:58;22.90;47.10
67101;DHT22;54019;61.746;16.106;2022-08-01T03:43:49;22.80;47.90
67101;DHT22;54019;61.746;16.106;2022-08-01T03:46:42;22.80;47.20
67101;DHT22;54019;61.746;16.106;2022-08-01T03:49:31;22.80;47.20
67101;DHT22;54019;61.746;16.106;2022-08-01T03:52:17;22.80;47.00
67101;DHT22;54019;61.746;16.106;2022-08-01T03:55:06;22.80;46.50
67101;DHT22;54019;61.746;16.106;2022-08-01T03:57:53;22.80;46.60
67101;DHT22;54019;61.746;16.106;2022-08-01T04:00:41;22.80;46.80
67101;DHT22;54019;61.746;16.106;2022-08-01T04:03:27;22.80;46.70
67101;DHT22;54019;61.746;16.106;2022-08-01T04:06:14;22.80;46.60
67101;DHT22;54019;61.746;16.106;2022-08-01T04:09:00;22.70;46.60
67101;DHT22;54019;61.746;16.106;2022-08-01T04:11:46;22.80;46.60
67101;DHT22;54019;61.746;16.106;2022-08-01T04:14:32;22.80;46.10
67101;DHT22;54019;61.746;16.106;2022-08-01T04:17:20;22.80;46.20
67101;DHT22;54019;61.746;16.106;2022-08-01T04:20:07;22.90;46.20
67101;DHT22;54019;61.746;16.106;2022-08-01T04:22:53;22.90;46.20
67101;DHT22;54019;61.746;16.106;2022-08-01T04:25:39;23.00;46.00
67101;DHT22;54019;61.746;16.106;2022-08-01T04:28:26;22.90;45.90
67101;DHT22;54019;61.746;16.106;2022-08-01T04:31:14;23.00;45.70
67101;DHT22;54019;61.746;16.106;2022-08-01T04:34:05;23.00;45.70
67101;DHT22;54019;61.746;16.106;2022-08-01T04:36:54;23.00;45.90
67101;DHT22;54019;61.746;16.106;2022-08-01T04:39:42;23.00;45.80
67101;DHT22;54019;61.746;16.106;2022-08-01T04:42:28;23.00;45.70
67101;DHT22;54019;61.746;16.106;2022-08-01T04:45:15;22.90;45.70
67101;DHT22;54019;61.746;16.106;2022-08-01T04:48:01;23.00;45.70
67101;DHT22;54019;61.746;16.106;2022-08-01T04:50:49;23.00;45.70
67101;DHT22;54019;61.746;16.106;2022-08-01T04:53:35;23.00;45.80
67101;DHT22;54019;61.746;16.106;2022-08-01T04:56:21;23.00;45.90
67101;DHT22;54019;61.746;16.106;2022-08-01T04:59:07;22.90;45.80
67101;DHT22;54019;61.746;16.106;2022-08-01T05:01:54;22.90;45.90
67101;DHT22;54019;61.746;16.106;2022-08-01T05:04:41;22.90;45.90
67101;DHT22;54019;61.746;16.106;2022-08-01T05:07:28;22.90;45.80
67101;DHT22;54019;61.746;16.106;2022-08-01T05:10:14;22.90;46.00
67101;DHT22;54019;61.746;16.106;2022-08-01T05:13:01;22.90;46.00
67101;DHT22;54019;61.746;16.106;2022-08-01T05:15:47;22.90;46.10
67101;DHT22;54019;61.746;16.106;2022-08-01T05:18:33;22.90;46.00
67101;DHT22;54019;61.746;16.106;2022-08-01T05:21:19;22.90;45.80
67101;DHT22;54019;61.746;16.106;2022-08-01T05:24:07;22.90;45.90
67101;DHT22;54019;61.746;16.106;2022-08-01T05:26:53;22.90;45.70
67101;DHT22;54019;61.746;16.106;2022-08-01T05:29:40;22.90;45.70
67101;DHT22;54019;61.746;16.106;2022-08-01T05:32:26;22.90;46.20
67101;DHT22;54019;61.746;16.106;2022-08-01T05:35:12;22.90;45.90
67101;DHT22;54019;61.746;16.106;2022-08-01T05:37:58;22.90;45.90
67101;DHT22;54019;61.746;16.106;2022-08-01T05:40:45;22.90;46.00
67101;DHT22;54019;61.746;16.106;2022-08-01T05:43:32;22.90;45.40
67101;DHT22;54019;61.746;16.106;2022-08-01T05:46:18;22.90;45.80
67101;DHT22;54019;61.746;16.106;2022-08-01T05:49:04;22.90;45.80
67101;DHT22;54019;61.746;16.106;2022-08-01T05:51:50;22.90;45.90
67101;DHT22;54019;61.746;16.106;2022-08-01T05:54:37;22.90;45.70
67101;DHT22;54019;61.746;16.106;2022-08-01T05:57:24;22.90;46.20
67101;DHT22;54019;61.746;16.106;2022-08-01T06:00:11;22.90;45.50
67101;DHT22;54019;61.746;16.106;2022-08-01T06:02:57;22.90;45.40
67101;DHT22;54019;61.746;16.106;2022-08-01T06:05:44;22.90;46.00
67101;DHT22;54019;61.746;16.106;2022-08-01T06:08:30;22.90;46.70
67101;DHT22;54019;61.746;16.106;2022-08-01T06:11:16;22.90;46.10
67101;DHT22;54019;61.746;16.106;2022-08-01T06:14:04;22.90;46.50
67101;DHT22;54019;61.746;16.106;2022-08-01T06:16:50;22.80;46.50
67101;DHT22;54019;61.746;16.106;2022-08-01T06:19:36;22.80;46.40
67101;DHT22;54019;61.746;16.106;2022-08-01T06:22:22;22.80;46.20
67101;DHT22;54019;61.746;16.106;2022-08-01T06:25:09;22.90;46.20
67101;DHT22;54019;61.746;16.106;2022-08-01T06:27:55;22.90;46.20
67101;DHT22;54019;61.746;16.106;2022-08-01T06:30:42;22.90;46.30
67101;DHT22;54019;61.746;16.106;2022-08-01T06:33:28;22.80;46.20
67101;DHT22;54019;61.746;16.106;2022-08-01T06:36:14;22.80;46.00
67101;DHT22;54019;61.746;16.106;2022-08-01T06:39:01;22.80;46.20
67101;DHT22;54019;61.746;16.106;2022-08-01T06:41:47;22.80;46.40
67101;DHT22;54019;61.746;16.106;2022-08-01T06:44:33;22.80;46.60
67101;DHT22;54019;61.746;16.106;2022-08-01T06:47:20;22.80;46.40
67101;DHT22;54019;61.746;16.106;2022-08-01T06:50:08;22.80;46.30
67101;DHT22;54019;61.746;16.106;2022-08-01T06:52:55;22.80;46.20
67101;DHT22;54019;61.746;16.106;2022-08-01T06:55:41;22.80;46.20
67101;DHT22;54019;61.746;16.106;2022-08-01T06:58:27;22.80;46.20
67101;DHT22;54019;61.746;16.106;2022-08-01T07:01:13;22.80;45.70
67101;DHT22;54019;61.746;16.106;2022-08-01T07:04:01;22.80;46.10
67101;DHT22;54019;61.746;16.106;2022-08-01T07:06:47;22.80;46.30
67101;DHT22;54019;61.746;16.106;2022-08-01T07:09:33;22.80;46.20
67101;DHT22;54019;61.746;16.106;2022-08-01T07:12:19;22.70;46.30
67101;DHT22;54019;61.746;16.106;2022-08-01T07:15:06;22.80;46.10
67101;DHT22;54019;61.746;16.106;2022-08-01T07:17:53;22.80;46.00
67101;DHT22;54019;61.746;16.106;2022-08-01T07:20:40;22.80;45.90
67101;DHT22;54019;61.746;16.106;2022-08-01T07:23:27;22.80;46.00
67101;DHT22;54019;61.746;16.106;2022-08-01T07:26:13;22.80;45.90
67101;DHT22;54019;61.746;16.106;2022-08-01T07:28:59;22.80;45.90
67101;DHT22;54019;61.746;16.106;2022-08-01T07:31:46;22.80;45.70
67101;DHT22;54019;61.746;16.106;2022-08-01T07:34:32;22.80;45.90
67101;DHT22;54019;61.746;16.106;2022-08-01T07:37:19;22.80;46.00
67101;DHT22;54019;61.746;16.106;2022-08-01T07:40:06;22.80;46.00
67101;DHT22;54019;61.746;16.106;2022-08-01T07:42:53;22.80;46.10
67101;DHT22;54019;61.746;16.106;2022-08-01T07:45:40;22.80;45.80
67101;DHT22;54019;61.746;16.106;2022-08-01T07:48:26;22.80;46.00
67101;DHT22;54019;61.746;16.106;2022-08-01T07:51:13;22.80;45.90
67101;DHT22;54019;61.746;16.106;2022-08-01T07:54:00;22.80;45.80
67101;DHT22;54019;61.746;16.106;2022-08-01T07:56:46;22.80;45.90
67101;DHT22;54019;61.746;16.106;2022-08-01T07:59:32;22.80;45.90
67101;DHT22;54019;61.746;16.106;2022-08-01T08:02:18;22.80;46.00
67101;DHT22;54019;61.746;16.106;2022-08-01T08:05:05;22.80;46.00
67101;DHT22;54019;61.746;16.106;2022-08-01T08:07:52;22.80;45.80
67101;DHT22;54019;61.746;16.106;2022-08-01T08:10:39;22.80;45.80
67101;DHT22;54019;61.746;16.106;2022-08-01T08:13:28;22.80;45.80
67101;DHT22;54019;61.746;16.106;2022-08-01T08:16:14;22.80;45.90
67101;DHT22;54019;61.746;16.106;2022-08-01T08:19:00;22.80;46.10
67101;DHT22;54019;61.746;16.106;2022-08-01T08:21:46;22.80;46.10
67101;DHT22;54019;61.746;16.106;2022-08-01T08:24:33;22.80;46.40
67101;DHT22;54019;61.746;16.106;2022-08-01T08:27:20;22.80;46.20
67101;DHT22;54019;61.746;16.106;2022-08-01T08:30:07;22.70;47.20
67101;DHT22;54019;61.746;16.106;2022-08-01T08:32:53;22.70;46.80
67101;DHT22;54019;61.746;16.106;2022-08-01T08:35:40;22.80;46.60
67101;DHT22;54019;61.746;16.106;2022-08-01T08:38:26;22.80;46.60
67101;DHT22;54019;61.746;16.106;2022-08-01T08:41:12;22.80;46.60
67101;DHT22;54019;61.746;16.106;2022-08-01T08:44:00;22.80;46.90
67101;DHT22;54019;61.746;16.106;2022-08-01T08:46:48;22.80;46.90
67101;DHT22;54019;61.746;16.106;2022-08-01T08:49:35;22.70;47.00
67101;DHT22;54019;61.746;16.106;2022-08-01T08:52:22;22.80;46.90
67101;DHT22;54019;61.746;16.106;2022-08-01T08:55:09;22.80;47.10
67101;DHT22;54019;61.746;16.106;2022-08-01T08:57:57;22.80;46.90
67101;DHT22;54019;61.746;16.106;2022-08-01T09:00:45;22.80;47.10
67101;DHT22;54019;61.746;16.106;2022-08-01T09:03:32;22.80;46.80
67101;DHT22;54019;61.746;16.106;2022-08-01T09:06:18;22.80;46.80
67101;DHT22;54019;61.746;16.106;2022-08-01T09:09:05;22.70;46.90
67101;DHT22;54019;61.746;16.106;2022-08-01T09:11:54;22.70;46.90
67101;DHT22;54019;61.746;16.106;2022-08-01T09:14:44;22.70;46.90
67101;DHT22;54019;61.746;16.106;2022-08-01T09:17:40;22.70;46.80
67101;DHT22;54019;61.746;16.106;2022-08-01T09:20:26;22.70;47.00
67101;DHT22;54019;61.746;16.106;2022-08-01T09:23:31;22.80;47.50
67101;DHT22;54019;61.746;16.106;2022-08-01T09:26:19;22.80;47.00
67101;DHT22;54019;61.746;16.106;2022-08-01T09:29:07;22.80;47.00
67101;DHT22;54019;61.746;16.106;2022-08-01T09:31:54;22.80;46.80
67101;DHT22;54019;61.746;16.106;2022-08-01T09:34:42;22.70;46.90
67101;DHT22;54019;61.746;16.106;2022-08-01T09:37:30;22.80;46.80
67101;DHT22;54019;61.746;16.106;2022-08-01T09:40:16;22.70;46.90
67101;DHT22;54019;61.746;16.106;2022-08-01T09:43:10;22.70;46.80
67101;DHT22;54019;61.746;16.106;2022-08-01T09:45:57;22.80;46.90
67101;DHT22;54019;61.746;16.106;2022-08-01T09:48:58;22.80;46.80
67101;DHT22;54019;61.746;16.106;2022-08-01T09:51:45;22.80;46.60
67101;DHT22;54019;61.746;16.106;2022-08-01T09:54:33;22.70;46.40
67101;DHT22;54019;61.746;16.106;2022-08-01T09:57:20;22.80;46.60
67101;DHT22;54019;61.746;16.106;2022-08-01T10:00:16;22.80;46.60
67101;DHT22;54019;61.746;16.106;2022-08-01T10:03:19;22.70;46.70
67101;DHT22;54019;61.746;16.106;2022-08-01T10:06:19;22.70;46.70
67101;DHT22;54019;61.746;16.106;2022-08-01T10:09:06;22.70;46.60
67101;DHT22;54019;61.746;16.106;2022-08-01T10:11:53;22.80;46.60
67101;DHT22;54019;61.746;16.106;2022-08-01T10:14:41;22.70;46.40
67101;DHT22;54019;61.746;16.106;2022-08-01T10:17:28;22.70;46.60
67101;DHT22;54019;61.746;16.106;2022-08-01T10:20:14;22.80;46.40
67101;DHT22;54019;61.746;16.106;2022-08-01T10:23:02;22.80;46.60
67101;DHT22;54019;61.746;16.106;2022-08-01T10:25:51;22.70;47.70
67101;DHT22;54019;61.746;16.106;2022-08-01T10:28:39;22.70;47.30
67101;DHT22;54019;61.746;16.106;2022-08-01T10:31:26;22.80;46.60
67101;DHT22;54019;61.746;16.106;2022-08-01T10:34:13;22.70;46.40
67101;DHT22;54019;61.746;16.106;2022-08-01T10:37:00;22.80;46.50
67101;DHT22;54019;61.746;16.106;2022-08-01T10:39:46;22.70;46.60
67101;DHT22;54019;61.746;16.106;2022-08-01T10:42:34;22.70;46.40
67101;DHT22;54019;61.746;16.106;2022-08-01T10:45:21;22.70;46.60
67101;DHT22;54019;61.746;16.106;2022-08-01T10:48:12;22.70;46.50
67101;DHT22;54019;61.746;16.106;2022-08-01T10:51:01;22.70;46.50
67101;DHT22;54019;61.746;16.106;2022-08-01T10:53:50;22.70;46.50
67101;DHT22;54019;61.746;16.106;2022-08-01T10:56:40;22.70;46.60
67101;DHT22;54019;61.746;16.106;2022-08-01T10:59:30;22.70;46.60
67101;DHT22;54019;61.746;16.106;2022-08-01T11:02:26;22.70;46.60
67101;DHT22;54019;61.746;16.106;2022-08-01T11:05:21;22.70;46.70
67101;DHT22;54019;61.746;16.106;2022-08-01T11:08:10;22.70;46.70
67101;DHT22;54019;61.746;16.106;2022-08-01T11:11:00;22.70;46.40
67101;DHT22;54019;61.746;16.106;2022-08-01T11:14:04;22.70;46.40
67101;DHT22;54019;61.746;16.106;2022-08-01T11:16:50;22.70;46.50
67101;DHT22;54019;61.746;16.106;2022-08-01T11:26:16;22.70;46.70
67101;DHT22;54019;61.746;16.106;2022-08-01T11:29:26;22.70;46.90
67101;DHT22;54019;61.746;16.106;2022-08-01T11:32:25;22.70;46.90
67101;DHT22;54019;61.746;16.106;2022-08-01T11:35:12;22.70;46.70
67101;DHT22;54019;61.746;16.106;2022-08-01T11:38:22;22.70;47.70
67101;DHT22;54019;61.746;16.106;2022-08-01T11:41:12;22.70;47.90
67101;DHT22;54019;61.746;16.106;2022-08-01T11:44:02;22.70;48.20
67101;DHT22;54019;61.746;16.106;2022-08-01T11:46:56;22.70;47.80
67101;DHT22;54019;61.746;16.106;2022-08-01T11:49:47;22.70;47.90
67101;DHT22;54019;61.746;16.106;2022-08-01T11:52:33;22.60;50.50
67101;DHT22;54019;61.746;16.106;2022-08-01T11:55:20;22.50;52.70
67101;DHT22;54019;61.746;16.106;2022-08-01T11:58:07;22.60;54.50
67101;DHT22;54019;61.746;16.106;2022-08-01T12:00:56;22.50;54.90
67101;DHT22;54019;61.746;16.106;2022-08-01T12:03:42;22.50;56.10
67101;DHT22;54019;61.746;16.106;2022-08-01T12:06:29;22.60;55.10
67101;DHT22;54019;61.746;16.106;2022-08-01T12:09:19;22.60;55.60
67101;DHT22;54019;61.746;16.106;2022-08-01T12:12:06;22.60;55.40
67101;DHT22;54019;61.746;16.106;2022-08-01T12:14:54;22.60;55.40
67101;DHT22;54019;61.746;16.106;2022-08-01T12:17:42;22.60;54.90
67101;DHT22;54019;61.746;16.106;2022-08-01T12:20:30;22.60;55.60
67101;DHT22;54019;61.746;16.106;2022-08-01T12:23:16;22.60;55.50
67101;DHT22;54019;61.746;16.106;2022-08-01T12:26:02;22.60;54.30
67101;DHT22;54019;61.746;16.106;2022-08-01T12:28:49;22.60;54.70
67101;DHT22;54019;61.746;16.106;2022-08-01T12:31:35;22.60;54.90
67101;DHT22;54019;61.746;16.106;2022-08-01T12:34:31;22.60;53.90
67101;DHT22;54019;61.746;16.106;2022-08-01T12:37:17;22.60;53.80
67101;DHT22;54019;61.746;16.106;2022-08-01T12:40:10;22.50;55.00
67101;DHT22;54019;61.746;16.106;2022-08-01T12:42:57;22.50;54.10
67101;DHT22;54019;61.746;16.106;2022-08-01T12:45:44;22.50;54.10
67101;DHT22;54019;61.746;16.106;2022-08-01T12:48:31;22.50;53.60
67101;DHT22;54019;61.746;16.106;2022-08-01T12:51:19;22.50;54.60
67101;DHT22;54019;61.746;16.106;2022-08-01T12:54:05;22.50;53.80
67101;DHT22;54019;61.746;16.106;2022-08-01T12:56:51;22.50;53.60
67101;DHT22;54019;61.746;16.106;2022-08-01T12:59:37;22.50;53.40
67101;DHT22;54019;61.746;16.106;2022-08-01T13:02:31;22.50;54.10
67101;DHT22;54019;61.746;16.106;2022-08-01T13:05:17;22.50;53.20
67101;DHT22;54019;61.746;16.106;2022-08-01T13:08:09;22.50;53.30
67101;DHT22;54019;61.746;16.106;2022-08-01T13:11:00;22.40;53.40
67101;DHT22;54019;61.746;16.106;2022-08-01T13:13:48;22.40;54.40
67101;DHT22;54019;61.746;16.106;2022-08-01T13:16:45;22.40;53.60
67101;DHT22;54019;61.746;16.106;2022-08-01T13:19:42;22.40;53.70
67101;DHT22;54019;61.746;16.106;2022-08-01T13:22:34;22.40;54.50
67101;DHT22;54019;61.746;16.106;2022-08-01T13:25:22;22.40;54.30
67101;DHT22;54019;61.746;16.106;2022-08-01T13:28:14;22.40;54.40
67101;DHT22;54019;61.746;16.106;2022-08-01T13:31:02;22.30;55.10
67101;DHT22;54019;61.746;16.106;2022-08-01T13:33:48;22.30;54.90
67101;DHT22;54019;61.746;16.106;2022-08-01T13:36:38;22.30;55.60
67101;DHT22;54019;61.746;16.106;2022-08-01T13:39:25;22.20;55.80
67101;DHT22;54019;61.746;16.106;2022-08-01T13:42:14;22.20;56.30
67101;DHT22;54019;61.746;16.106;2022-08-01T13:45:00;22.20;56.00
67101;DHT22;54019;61.746;16.106;2022-08-01T13:47:46;22.20;57.70
67101;DHT22;54019;61.746;16.106;2022-08-01T13:50:32;22.10;57.30
67101;DHT22;54019;61.746;16.106;2022-08-01T13:53:19;22.00;59.10
67101;DHT22;54019;61.746;16.106;2022-08-01T13:56:05;22.00;57.90
67101;DHT22;54019;61.746;16.106;2022-08-01T13:58:52;22.00;57.70
67101;DHT22;54019;61.746;16.106;2022-08-01T14:01:38;22.00;56.90
67101;DHT22;54019;61.746;16.106;2022-08-01T14:04:25;22.00;57.20
67101;DHT22;54019;61.746;16.106;2022-08-01T14:07:11;21.80;57.10
67101;DHT22;54019;61.746;16.106;2022-08-01T14:09:57;21.80;57.60
67101;DHT22;54019;61.746;16.106;2022-08-01T14:12:43;21.80;57.80
67101;DHT22;54019;61.746;16.106;2022-08-01T14:15:31;21.80;57.60
67101;DHT22;54019;61.746;16.106;2022-08-01T14:18:17;21.80;57.60
67101;DHT22;54019;61.746;16.106;2022-08-01T14:21:04;21.80;57.00
67101;DHT22;54019;61.746;16.106;2022-08-01T14:23:50;21.90;56.70
67101;DHT22;54019;61.746;16.106;2022-08-01T14:26:36;21.90;57.00
67101;DHT22;54019;61.746;16.106;2022-08-01T14:29:22;21.90;56.90
67101;DHT22;54019;61.746;16.106;2022-08-01T14:32:10;21.90;57.20
67101;DHT22;54019;61.746;16.106;2022-08-01T14:34:56;21.90;57.00
67101;DHT22;54019;61.746;16.106;2022-08-01T14:37:42;21.80;57.80
67101;DHT22;54019;61.746;16.106;2022-08-01T14:40:29;21.70;58.10
67101;DHT22;54019;61.746;16.106;2022-08-01T14:43:15;21.70;57.80
67101;DHT22;54019;61.746;16.106;2022-08-01T14:46:01;21.80;57.60
67101;DHT22;54019;61.746;16.106;2022-08-01T14:48:49;21.80;57.50
67101;DHT22;54019;61.746;16.106;2022-08-01T14:51:35;21.80;58.10
67101;DHT22;54019;61.746;16.106;2022-08-01T14:54:21;21.80;57.70
67101;DHT22;54019;61.746;16.106;2022-08-01T14:57:07;21.80;57.80
67101;DHT22;54019;61.746;16.106;2022-08-01T14:59:53;21.80;58.10
67101;DHT22;54019;61.746;16.106;2022-08-01T15:02:39;21.80;58.70
67101;DHT22;54019;61.746;16.106;2022-08-01T15:05:27;21.80;58.00
67101;DHT22;54019;61.746;16.106;2022-08-01T15:08:13;21.70;57.80
67101;DHT22;54019;61.746;16.106;2022-08-01T15:10:59;21.70;57.80
67101;DHT22;54019;61.746;16.106;2022-08-01T15:13:45;21.80;56.50
67101;DHT22;54019;61.746;16.106;2022-08-01T15:16:31;21.80;56.70
67101;DHT22;54019;61.746;16.106;2022-08-01T15:19:18;21.80;56.90
67101;DHT22;54019;61.746;16.106;2022-08-01T15:22:05;21.90;55.90
67101;DHT22;54019;61.746;16.106;2022-08-01T15:24:52;21.90;55.30
67101;DHT22;54019;61.746;16.106;2022-08-01T15:27:39;21.90;54.90
67101;DHT22;54019;61.746;16.106;2022-08-01T15:30:25;22.00;54.60
67101;DHT22;54019;61.746;16.106;2022-08-01T15:33:11;22.00;54.30
67101;DHT22;54019;61.746;16.106;2022-08-01T15:35:57;22.00;53.90
67101;DHT22;54019;61.746;16.106;2022-08-01T15:38:45;22.00;53.70
67101;DHT22;54019;61.746;16.106;2022-08-01T15:41:31;22.00;53.40
67101;DHT22;54019;61.746;16.106;2022-08-01T15:44:17;22.00;53.10
67101;DHT22;54019;61.746;16.106;2022-08-01T15:47:04;22.00;52.90
67101;DHT22;54019;61.746;16.106;2022-08-01T15:49:50;22.10;52.80
67101;DHT22;54019;61.746;16.106;2022-08-01T15:52:36;22.10;52.60
67101;DHT22;54019;61.746;16.106;2022-08-01T15:55:24;22.10;52.50
67101;DHT22;54019;61.746;16.106;2022-08-01T15:58:10;22.10;52.20
67101;DHT22;54019;61.746;16.106;2022-08-01T16:00:56;22.10;52.00
67101;DHT22;54019;61.746;16.106;2022-08-01T16:03:42;22.10;51.70
67101;DHT22;54019;61.746;16.106;2022-08-01T16:06:29;22.10;51.80
67101;DHT22;54019;61.746;16.106;2022-08-01T16:09:15;22.10;51.50
67101;DHT22;54019;61.746;16.106;2022-08-01T16:12:03;22.10;51.40
67101;DHT22;54019;61.746;16.106;2022-08-01T16:14:49;22.10;51.20
67101;DHT22;54019;61.746;16.106;2022-08-01T16:17:35;22.10;51.10
67101;DHT22;54019;61.746;16.106;2022-08-01T16:20:21;22.10;51.10
67101;DHT22;54019;61.746;16.106;2022-08-01T16:23:07;22.10;50.90
67101;DHT22;54019;61.746;16.106;2022-08-01T16:25:56;22.10;50.80
67101;DHT22;54019;61.746;16.106;2022-08-01T16:28:44;22.10;51.20
67101;DHT22;54019;61.746;16.106;2022-08-01T16:31:30;22.00;51.00
67101;DHT22;54019;61.746;16.106;2022-08-01T16:34:16;22.10;51.70
67101;DHT22;54019;61.746;16.106;2022-08-01T16:37:02;22.10;50.80
67101;DHT22;54019;61.746;16.106;2022-08-01T16:39:48;22.10;50.40
67101;DHT22;54019;61.746;16.106;2022-08-01T16:42:35;22.10;50.40
67101;DHT22;54019;61.746;16.106;2022-08-01T16:45:22;22.10;50.10
67101;DHT22;54019;61.746;16.106;2022-08-01T16:48:08;22.00;50.10
67101;DHT22;54019;61.746;16.106;2022-08-01T16:50:55;22.10;50.10
67101;DHT22;54019;61.746;16.106;2022-08-01T16:53:41;22.10;50.10
67101;DHT22;54019;61.746;16.106;2022-08-01T16:56:27;22.00;50.00
67101;DHT22;54019;61.746;16.106;2022-08-01T16:59:13;22.00;50.00
67101;DHT22;54019;61.746;16.106;2022-08-01T17:02:01;22.10;50.40
67101;DHT22;54019;61.746;16.106;2022-08-01T17:04:47;22.10;50.00
67101;DHT22;54019;61.746;16.106;2022-08-01T17:07:33;22.10;49.90
67101;DHT22;54019;61.746;16.106;2022-08-01T17:10:19;22.10;50.30
67101;DHT22;54019;61.746;16.106;2022-08-01T17:13:05;22.10;49.70
67101;DHT22;54019;61.746;16.106;2022-08-01T17:15:51;22.10;49.60
67101;DHT22;54019;61.746;16.106;2022-08-01T17:18:39;22.10;49.50
67101;DHT22;54019;61.746;16.106;2022-08-01T17:21:25;22.10;49.40
67101;DHT22;54019;61.746;16.106;2022-08-01T17:24:11;22.10;49.30
67101;DHT22;54019;61.746;16.106;2022-08-01T17:26:58;22.10;49.30
67101;DHT22;54019;61.746;16.106;2022-08-01T17:29:44;22.10;49.30